sensor_id;sensor_type;location;lat;lon;timestamp;P1;durP1;ratioP1;P2;durP2;ratioP2
29504;SDS011;16452;54.174;12.092;2023-02-17T00:01:14;47.55;;;29.95;;
29504;SDS011;16452;54.174;12.092;2023-02-17T00:03:47;51.67;;;32.38;;
29504;SDS011;16452;54.174;12.092;2023-02-17T00:06:15;51.05;;;33.00;;
29504;SDS011;16452;54.174;12.092;2023-02-17T00:08:43;54.90;;;35.40;;
29504;SDS011;16452;54.174;12.092;2023-02-17T00:11:10;52.75;;;36.22;;
29504;SDS011;16452;54.174;12.092;2023-02-17T00:13:35;57.42;;;38.75;;
29504;SDS011;16452;54.174;12.092;2023-02-17T00:16:08;61.72;;;40.47;;
29504;SDS011;16452;54.174;12.092;2023-02-17T00:18:43;62.58;;;39.95;;
29504;SDS011;16452;54.174;12.092;2023-02-17T00:21:18;65.40;;;42.88;;
29504;SDS011;16452;54.174;12.092;2023-02-17T00:23:46;64.20;;;42.30;;
29504;SDS011;16452;54.174;12.092;2023-02-17T00:26:13;69.65;;;44.92;;
29504;SDS011;16452;54.174;12.092;2023-02-17T00:28:41;65.18;;;42.63;;
29504;SDS011;16452;54.174;12.092;2023-02-17T00:31:09;66.03;;;43.67;;
29504;SDS011;16452;54.174;12.092;2023-02-17T00:33:41;66.82;;;44.90;;
29504;SDS011;16452;54.174;12.092;2023-02-17T00:36:09;65.93;;;44.42;;
29504;SDS011;16452;54.174;12.092;2023-02-17T00:38:37;63.60;;;42.78;;
29504;SDS011;16452;54.174;12.092;2023-02-17T00:41:03;66.32;;;45.22;;
29504;SDS011;16452;54.174;12.092;2023-02-17T00:43:29;66.95;;;45.03;;
29504;SDS011;16452;54.174;12.092;2023-02-17T00:45:55;66.72;;;45.40;;
29504;SDS011;16452;54.174;12.092;2023-02-17T00:48:21;67.47;;;45.90;;
29504;SDS011;16452;54.174;12.092;2023-02-17T00:50:47;70.07;;;46.47;;
29504;SDS011;16452;54.174;12.092;2023-02-17T00:53:13;66.68;;;44.17;;
29504;SDS011;16452;54.174;12.092;2023-02-17T00:55:39;68.72;;;47.10;;
29504;SDS011;16452;54.174;12.092;2023-02-17T00:58:05;66.05;;;46.38;;
29504;SDS011;16452;54.174;12.092;2023-02-17T01:00:31;72.30;;;48.13;;
29504;SDS011;16452;54.174;12.092;2023-02-17T01:02:56;73.20;;;49.55;;
29504;SDS011;16452;54.174;12.092;2023-02-17T01:05:22;71.78;;;48.10;;
29504;SDS011;16452;54.174;12.092;2023-02-17T01:07:48;70.25;;;49.38;;
29504;SDS011;16452;54.174;12.092;2023-02-17T01:10:14;75.25;;;48.90;;
29504;SDS011;16452;54.174;12.092;2023-02-17T01:12:40;74.50;;;51.20;;
29504;SDS011;16452;54.174;12.092;2023-02-17T01:15:05;77.72;;;50.63;;
29504;SDS011;16452;54.174;12.092;2023-02-17T01:17:32;74.43;;;50.50;;
29504;SDS011;16452;54.174;12.092;2023-02-17T01:19:57;75.32;;;49.85;;
29504;SDS011;16452;54.174;12.092;2023-02-17T01:22:23;72.60;;;49.33;;
29504;SDS011;16452;54.174;12.092;2023-02-17T01:24:49;73.90;;;50.17;;
29504;SDS011;16452;54.174;12.092;2023-02-17T01:27:15;78.78;;;52.10;;
29504;SDS011;16452;54.174;12.092;2023-02-17T01:29:40;76.38;;;51.03;;
29504;SDS011;16452;54.174;12.092;2023-02-17T01:32:09;75.47;;;51.65;;
29504;SDS011;16452;54.174;12.092;2023-02-17T01:34:36;77.63;;;51.63;;
29504;SDS011;16452;54.174;12.092;2023-02-17T01:37:02;77.20;;;51.35;;
29504;SDS011;16452;54.174;12.092;2023-02-17T01:39:28;78.68;;;52.40;;
29504;SDS011;16452;54.174;12.092;2023-02-17T01:41:53;77.25;;;51.72;;
29504;SDS011;16452;54.174;12.092;2023-02-17T01:44:21;78.90;;;49.55;;
29504;SDS011;16452;54.174;12.092;2023-02-17T01:46:50;72.32;;;49.67;;
29504;SDS011;16452;54.174;12.092;2023-02-17T01:49:23;72.22;;;50.00;;
29504;SDS011;16452;54.174;12.092;2023-02-17T01:51:51;74.57;;;49.65;;
29504;SDS011;16452;54.174;12.092;2023-02-17T01:54:35;76.40;;;50.70;;
29504;SDS011;16452;54.174;12.092;2023-02-17T01:57:14;75.50;;;50.08;;
29504;SDS011;16452;54.174;12.092;2023-02-17T01:59:45;73.30;;;50.33;;
29504;SDS011;16452;54.174;12.092;2023-02-17T02:02:11;73.70;;;49.28;;
29504;SDS011;16452;54.174;12.092;2023-02-17T02:04:39;78.22;;;51.70;;
29504;SDS011;16452;54.174;12.092;2023-02-17T02:07:22;73.53;;;48.92;;
29504;SDS011;16452;54.174;12.092;2023-02-17T02:09:58;73.20;;;49.72;;
29504;SDS011;16452;54.174;12.092;2023-02-17T02:12:28;69.57;;;49.50;;
29504;SDS011;16452;54.174;12.092;2023-02-17T02:14:59;68.68;;;47.28;;
29504;SDS011;16452;54.174;12.092;2023-02-17T02:17:58;72.45;;;48.90;;
29504;SDS011;16452;54.174;12.092;2023-02-17T02:21:11;69.03;;;48.22;;
29504;SDS011;16452;54.174;12.092;2023-02-17T02:24:15;72.70;;;48.97;;
29504;SDS011;16452;54.174;12.092;2023-02-17T02:27:08;73.65;;;47.92;;
29504;SDS011;16452;54.174;12.092;2023-02-17T02:33:02;70.38;;;49.10;;
29504;SDS011;16452;54.174;12.092;2023-02-17T02:35:58;68.88;;;49.17;;
29504;SDS011;16452;54.174;12.092;2023-02-17T02:38:48;71.57;;;49.45;;
29504;SDS011;16452;54.174;12.092;2023-02-17T02:41:40;66.53;;;47.97;;
29504;SDS011;16452;54.174;12.092;2023-02-17T02:44:12;67.88;;;47.65;;
29504;SDS011;16452;54.174;12.092;2023-02-17T02:46:41;71.90;;;49.45;;
29504;SDS011;16452;54.174;12.092;2023-02-17T02:49:07;67.35;;;48.08;;
29504;SDS011;16452;54.174;12.092;2023-02-17T02:54:35;68.82;;;47.47;;
29504;SDS011;16452;54.174;12.092;2023-02-17T02:57:31;68.65;;;47.03;;
29504;SDS011;16452;54.174;12.092;2023-02-17T03:03:00;71.88;;;47.40;;
29504;SDS011;16452;54.174;12.092;2023-02-17T03:05:59;71.85;;;47.67;;
29504;SDS011;16452;54.174;12.092;2023-02-17T03:08:48;64.93;;;46.55;;
29504;SDS011;16452;54.174;12.092;2023-02-17T03:11:22;66.95;;;48.03;;
29504;SDS011;16452;54.174;12.092;2023-02-17T03:14:02;66.82;;;47.08;;
29504;SDS011;16452;54.174;12.092;2023-02-17T03:16:38;69.50;;;47.47;;
29504;SDS011;16452;54.174;12.092;2023-02-17T03:19:06;71.32;;;48.05;;
29504;SDS011;16452;54.174;12.092;2023-02-17T03:21:36;65.47;;;46.05;;
29504;SDS011;16452;54.174;12.092;2023-02-17T03:24:14;62.85;;;45.75;;
29504;SDS011;16452;54.174;12.092;2023-02-17T03:26:41;58.80;;;44.10;;
29504;SDS011;16452;54.174;12.092;2023-02-17T03:29:07;60.60;;;42.92;;
29504;SDS011;16452;54.174;12.092;2023-02-17T03:31:33;63.10;;;43.55;;
29504;SDS011;16452;54.174;12.092;2023-02-17T03:33:59;61.30;;;44.00;;
29504;SDS011;16452;54.174;12.092;2023-02-17T03:36:24;58.67;;;42.10;;
29504;SDS011;16452;54.174;12.092;2023-02-17T03:38:50;58.05;;;41.67;;
29504;SDS011;16452;54.174;12.092;2023-02-17T03:41:16;59.30;;;41.28;;
29504;SDS011;16452;54.174;12.092;2023-02-17T03:43:42;54.67;;;40.00;;
29504;SDS011;16452;54.174;12.092;2023-02-17T03:46:11;52.08;;;39.78;;
29504;SDS011;16452;54.174;12.092;2023-02-17T03:48:38;51.05;;;38.22;;
29504;SDS011;16452;54.174;12.092;2023-02-17T03:51:11;49.58;;;38.38;;
29504;SDS011;16452;54.174;12.092;2023-02-17T03:53:42;48.13;;;37.45;;
29504;SDS011;16452;54.174;12.092;2023-02-17T03:56:10;48.42;;;36.83;;
29504;SDS011;16452;54.174;12.092;2023-02-17T03:58:37;48.70;;;36.97;;
29504;SDS011;16452;54.174;12.092;2023-02-17T04:01:05;46.63;;;35.88;;
29504;SDS011;16452;54.174;12.092;2023-02-17T04:03:32;49.42;;;36.40;;
29504;SDS011;16452;54.174;12.092;2023-02-17T04:05:58;45.55;;;34.65;;
29504;SDS011;16452;54.174;12.092;2023-02-17T04:08:25;45.00;;;34.92;;
29504;SDS011;16452;54.174;12.092;2023-02-17T04:10:55;45.60;;;34.80;;
29504;SDS011;16452;54.174;12.092;2023-02-17T04:13:24;45.28;;;35.65;;
29504;SDS011;16452;54.174;12.092;2023-02-17T04:15:51;45.85;;;35.45;;
29504;SDS011;16452;54.174;12.092;2023-02-17T04:18:18;42.97;;;33.90;;
29504;SDS011;16452;54.174;12.092;2023-02-17T04:20:46;41.60;;;33.13;;
29504;SDS011;16452;54.174;12.092;2023-02-17T04:23:13;42.78;;;32.72;;
29504;SDS011;16452;54.174;12.092;2023-02-17T04:25:40;43.10;;;32.53;;
29504;SDS011;16452;54.174;12.092;2023-02-17T04:28:06;40.83;;;32.50;;
29504;SDS011;16452;54.174;12.092;2023-02-17T04:30:33;39.45;;;31.65;;
29504;SDS011;16452;54.174;12.092;2023-02-17T04:32:59;39.00;;;31.70;;
29504;SDS011;16452;54.174;12.092;2023-02-17T04:35:25;38.45;;;31.25;;
29504;SDS011;16452;54.174;12.092;2023-02-17T04:37:51;38.40;;;31.60;;
29504;SDS011;16452;54.174;12.092;2023-02-17T04:40:17;37.08;;;31.25;;
29504;SDS011;16452;54.174;12.092;2023-02-17T04:42:43;36.10;;;30.05;;
29504;SDS011;16452;54.174;12.092;2023-02-17T04:45:10;37.60;;;29.50;;
29504;SDS011;16452;54.174;12.092;2023-02-17T04:47:36;37.22;;;30.10;;
29504;SDS011;16452;54.174;12.092;2023-02-17T04:50:03;33.55;;;28.67;;
29504;SDS011;16452;54.174;12.092;2023-02-17T04:52:31;34.05;;;28.95;;
29504;SDS011;16452;54.174;12.092;2023-02-17T04:54:56;35.03;;;28.38;;
29504;SDS011;16452;54.174;12.092;2023-02-17T04:57:22;33.67;;;28.70;;
29504;SDS011;16452;54.174;12.092;2023-02-17T04:59:48;33.97;;;28.42;;
29504;SDS011;16452;54.174;12.092;2023-02-17T05:02:13;33.05;;;27.58;;
29504;SDS011;16452;54.174;12.092;2023-02-17T05:04:39;33.47;;;27.83;;
29504;SDS011;16452;54.174;12.092;2023-02-17T05:07:05;34.85;;;27.10;;
29504;SDS011;16452;54.174;12.092;2023-02-17T05:09:31;34.83;;;28.00;;
29504;SDS011;16452;54.174;12.092;2023-02-17T05:11:56;31.90;;;27.63;;
29504;SDS011;16452;54.174;12.092;2023-02-17T05:14:23;31.17;;;26.08;;
29504;SDS011;16452;54.174;12.092;2023-02-17T05:16:48;31.77;;;26.77;;
29504;SDS011;16452;54.174;12.092;2023-02-17T05:19:14;32.80;;;27.95;;
29504;SDS011;16452;54.174;12.092;2023-02-17T05:21:40;32.88;;;27.15;;
29504;SDS011;16452;54.174;12.092;2023-02-17T05:24:05;32.00;;;27.70;;
29504;SDS011;16452;54.174;12.092;2023-02-17T05:26:32;35.05;;;28.20;;
29504;SDS011;16452;54.174;12.092;2023-02-17T05:28:57;33.15;;;27.92;;
29504;SDS011;16452;54.174;12.092;2023-02-17T05:31:23;33.08;;;27.52;;
29504;SDS011;16452;54.174;12.092;2023-02-17T05:33:49;30.48;;;26.58;;
29504;SDS011;16452;54.174;12.092;2023-02-17T05:36:14;31.17;;;27.25;;
29504;SDS011;16452;54.174;12.092;2023-02-17T05:38:40;35.08;;;27.92;;
29504;SDS011;16452;54.174;12.092;2023-02-17T05:41:09;31.63;;;27.40;;
29504;SDS011;16452;54.174;12.092;2023-02-17T05:43:37;31.25;;;27.13;;
29504;SDS011;16452;54.174;12.092;2023-02-17T05:46:03;32.95;;;26.63;;
29504;SDS011;16452;54.174;12.092;2023-02-17T05:48:30;30.00;;;26.35;;
29504;SDS011;16452;54.174;12.092;2023-02-17T05:50:56;33.20;;;27.08;;
29504;SDS011;16452;54.174;12.092;2023-02-17T05:53:22;32.55;;;27.35;;
29504;SDS011;16452;54.174;12.092;2023-02-17T05:55:48;34.17;;;27.50;;
29504;SDS011;16452;54.174;12.092;2023-02-17T05:58:13;33.78;;;26.73;;
29504;SDS011;16452;54.174;12.092;2023-02-17T06:00:39;31.50;;;26.20;;
29504;SDS011;16452;54.174;12.092;2023-02-17T06:03:05;32.78;;;27.55;;
29504;SDS011;16452;54.174;12.092;2023-02-17T06:05:31;36.65;;;28.67;;
29504;SDS011;16452;54.174;12.092;2023-02-17T06:07:57;32.28;;;26.90;;
29504;SDS011;16452;54.174;12.092;2023-02-17T06:10:23;32.92;;;27.30;;
29504;SDS011;16452;54.174;12.092;2023-02-17T06:12:48;33.70;;;28.02;;
29504;SDS011;16452;54.174;12.092;2023-02-17T06:15:14;34.13;;;27.85;;
29504;SDS011;16452;54.174;12.092;2023-02-17T06:17:40;34.88;;;28.25;;
29504;SDS011;16452;54.174;12.092;2023-02-17T06:20:06;33.35;;;28.50;;
29504;SDS011;16452;54.174;12.092;2023-02-17T06:22:33;34.53;;;27.85;;
29504;SDS011;16452;54.174;12.092;2023-02-17T06:24:59;34.03;;;27.92;;
29504;SDS011;16452;54.174;12.092;2023-02-17T06:27:25;32.25;;;27.05;;
29504;SDS011;16452;54.174;12.092;2023-02-17T06:29:50;33.80;;;27.40;;
29504;SDS011;16452;54.174;12.092;2023-02-17T06:32:16;38.33;;;28.27;;
29504;SDS011;16452;54.174;12.092;2023-02-17T06:34:42;34.05;;;28.50;;
29504;SDS011;16452;54.174;12.092;2023-02-17T06:37:08;34.28;;;27.98;;
29504;SDS011;16452;54.174;12.092;2023-02-17T06:39:33;33.97;;;28.60;;
29504;SDS011;16452;54.174;12.092;2023-02-17T06:41:59;35.42;;;28.10;;
29504;SDS011;16452;54.174;12.092;2023-02-17T06:44:25;33.83;;;28.15;;
29504;SDS011;16452;54.174;12.092;2023-02-17T06:46:51;35.90;;;29.33;;
29504;SDS011;16452;54.174;12.092;2023-02-17T06:49:17;38.97;;;29.90;;
29504;SDS011;16452;54.174;12.092;2023-02-17T06:51:42;37.38;;;28.95;;
29504;SDS011;16452;54.174;12.092;2023-02-17T06:54:08;38.75;;;30.15;;
29504;SDS011;16452;54.174;12.092;2023-02-17T06:56:34;37.17;;;29.90;;
29504;SDS011;16452;54.174;12.092;2023-02-17T06:59:00;39.60;;;30.13;;
29504;SDS011;16452;54.174;12.092;2023-02-17T07:01:27;37.17;;;29.27;;
29504;SDS011;16452;54.174;12.092;2023-02-17T07:03:53;37.08;;;29.45;;
29504;SDS011;16452;54.174;12.092;2023-02-17T07:06:21;39.28;;;30.63;;
29504;SDS011;16452;54.174;12.092;2023-02-17T07:08:48;40.08;;;31.58;;
29504;SDS011;16452;54.174;12.092;2023-02-17T07:11:15;41.15;;;31.40;;
29504;SDS011;16452;54.174;12.092;2023-02-17T07:13:42;39.08;;;30.95;;
29504;SDS011;16452;54.174;12.092;2023-02-17T07:16:10;40.30;;;30.88;;
29504;SDS011;16452;54.174;12.092;2023-02-17T07:18:37;40.83;;;31.02;;
29504;SDS011;16452;54.174;12.092;2023-02-17T07:21:07;40.67;;;30.75;;
29504;SDS011;16452;54.174;12.092;2023-02-17T07:23:34;39.35;;;31.27;;
29504;SDS011;16452;54.174;12.092;2023-02-17T07:26:01;41.45;;;31.45;;
29504;SDS011;16452;54.174;12.092;2023-02-17T07:28:33;39.22;;;31.50;;
29504;SDS011;16452;54.174;12.092;2023-02-17T07:31:03;41.42;;;29.95;;
29504;SDS011;16452;54.174;12.092;2023-02-17T07:33:35;39.72;;;28.90;;
29504;SDS011;16452;54.174;12.092;2023-02-17T07:36:05;40.25;;;30.52;;
29504;SDS011;16452;54.174;12.092;2023-02-17T07:38:36;38.72;;;29.80;;
29504;SDS011;16452;54.174;12.092;2023-02-17T07:41:03;39.38;;;29.45;;
29504;SDS011;16452;54.174;12.092;2023-02-17T07:43:35;38.97;;;29.75;;
29504;SDS011;16452;54.174;12.092;2023-02-17T07:46:02;39.75;;;28.83;;
29504;SDS011;16452;54.174;12.092;2023-02-17T07:48:28;35.63;;;27.98;;
29504;SDS011;16452;54.174;12.092;2023-02-17T07:50:54;42.80;;;28.00;;
29504;SDS011;16452;54.174;12.092;2023-02-17T07:53:20;35.70;;;26.98;;
29504;SDS011;16452;54.174;12.092;2023-02-17T07:55:46;36.55;;;27.85;;
29504;SDS011;16452;54.174;12.092;2023-02-17T07:58:12;37.83;;;26.50;;
29504;SDS011;16452;54.174;12.092;2023-02-17T08:00:38;34.00;;;25.40;;
29504;SDS011;16452;54.174;12.092;2023-02-17T08:03:03;33.42;;;25.15;;
29504;SDS011;16452;54.174;12.092;2023-02-17T08:05:29;33.53;;;24.58;;
29504;SDS011;16452;54.174;12.092;2023-02-17T08:07:55;29.75;;;23.10;;
29504;SDS011;16452;54.174;12.092;2023-02-17T08:10:39;33.63;;;23.70;;
29504;SDS011;16452;54.174;12.092;2023-02-17T08:13:24;28.80;;;21.65;;
29504;SDS011;16452;54.174;12.092;2023-02-17T08:15:51;28.40;;;21.20;;
29504;SDS011;16452;54.174;12.092;2023-02-17T08:18:17;30.00;;;22.30;;
29504;SDS011;16452;54.174;12.092;2023-02-17T08:20:43;26.48;;;20.67;;
29504;SDS011;16452;54.174;12.092;2023-02-17T08:23:09;29.95;;;21.20;;
29504;SDS011;16452;54.174;12.092;2023-02-17T08:25:35;26.65;;;20.23;;
29504;SDS011;16452;54.174;12.092;2023-02-17T08:28:02;25.88;;;20.10;;
29504;SDS011;16452;54.174;12.092;2023-02-17T08:30:34;26.00;;;19.35;;
29504;SDS011;16452;54.174;12.092;2023-02-17T08:33:00;23.10;;;18.67;;
29504;SDS011;16452;54.174;12.092;2023-02-17T08:35:26;25.65;;;18.42;;
29504;SDS011;16452;54.174;12.092;2023-02-17T08:37:52;25.35;;;18.88;;
29504;SDS011;16452;54.174;12.092;2023-02-17T08:40:18;25.05;;;18.25;;
29504;SDS011;16452;54.174;12.092;2023-02-17T08:42:44;24.48;;;18.17;;
29504;SDS011;16452;54.174;12.092;2023-02-17T08:45:11;23.60;;;17.75;;
29504;SDS011;16452;54.174;12.092;2023-02-17T08:47:38;21.88;;;16.92;;
29504;SDS011;16452;54.174;12.092;2023-02-17T08:50:05;24.25;;;17.70;;
29504;SDS011;16452;54.174;12.092;2023-02-17T08:52:32;22.73;;;17.48;;
29504;SDS011;16452;54.174;12.092;2023-02-17T08:54:59;22.73;;;16.35;;
29504;SDS011;16452;54.174;12.092;2023-02-17T08:57:24;21.83;;;16.52;;
29504;SDS011;16452;54.174;12.092;2023-02-17T08:59:51;21.75;;;16.27;;
29504;SDS011;16452;54.174;12.092;2023-02-17T09:02:17;22.88;;;16.40;;
29504;SDS011;16452;54.174;12.092;2023-02-17T09:04:43;26.77;;;16.30;;
29504;SDS011;16452;54.174;12.092;2023-02-17T09:07:10;19.95;;;15.20;;
29504;SDS011;16452;54.174;12.092;2023-02-17T09:09:39;21.20;;;14.95;;
29504;SDS011;16452;54.174;12.092;2023-02-17T09:12:05;21.27;;;15.18;;
29504;SDS011;16452;54.174;12.092;2023-02-17T09:14:31;20.90;;;14.77;;
29504;SDS011;16452;54.174;12.092;2023-02-17T09:16:57;19.48;;;14.15;;
29504;SDS011;16452;54.174;12.092;2023-02-17T09:19:23;20.23;;;13.35;;
29504;SDS011;16452;54.174;12.092;2023-02-17T09:21:50;16.70;;;13.45;;
29504;SDS011;16452;54.174;12.092;2023-02-17T09:24:16;18.73;;;13.43;;
29504;SDS011;16452;54.174;12.092;2023-02-17T09:26:42;16.58;;;12.20;;
29504;SDS011;16452;54.174;12.092;2023-02-17T09:29:08;15.57;;;12.00;;
29504;SDS011;16452;54.174;12.092;2023-02-17T09:31:34;15.32;;;11.85;;
29504;SDS011;16452;54.174;12.092;2023-02-17T09:34:03;15.75;;;11.65;;
29504;SDS011;16452;54.174;12.092;2023-02-17T09:36:31;14.80;;;11.68;;
29504;SDS011;16452;54.174;12.092;2023-02-17T09:39:03;13.52;;;11.07;;
29504;SDS011;16452;54.174;12.092;2023-02-17T09:44:22;15.52;;;10.35;;
29504;SDS011;16452;54.174;12.092;2023-02-17T09:47:22;14.38;;;10.30;;
29504;SDS011;16452;54.174;12.092;2023-02-17T09:49:54;12.38;;;9.75;;
29504;SDS011;16452;54.174;12.092;2023-02-17T09:52:27;14.20;;;10.40;;
29504;SDS011;16452;54.174;12.092;2023-02-17T09:55:29;15.70;;;11.20;;
29504;SDS011;16452;54.174;12.092;2023-02-17T10:00:55;16.77;;;11.57;;
29504;SDS011;16452;54.174;12.092;2023-02-17T10:03:25;16.90;;;11.93;;
29504;SDS011;16452;54.174;12.092;2023-02-17T10:09:03;15.93;;;11.10;;
29504;SDS011;16452;54.174;12.092;2023-02-17T10:12:22;17.65;;;11.70;;
29504;SDS011;16452;54.174;12.092;2023-02-17T10:15:00;15.63;;;11.48;;
29504;SDS011;16452;54.174;12.092;2023-02-17T10:20:45;18.40;;;12.20;;
29504;SDS011;16452;54.174;12.092;2023-02-17T10:23:25;17.20;;;12.38;;
29504;SDS011;16452;54.174;12.092;2023-02-17T10:26:05;17.58;;;12.38;;
29504;SDS011;16452;54.174;12.092;2023-02-17T10:28:51;17.88;;;12.45;;
29504;SDS011;16452;54.174;12.092;2023-02-17T10:34:03;16.42;;;12.25;;
29504;SDS011;16452;54.174;12.092;2023-02-17T10:36:40;19.30;;;12.82;;
29504;SDS011;16452;54.174;12.092;2023-02-17T10:39:50;16.83;;;11.75;;
29504;SDS011;16452;54.174;12.092;2023-02-17T10:45:12;19.08;;;12.50;;
29504;SDS011;16452;54.174;12.092;2023-02-17T10:51:05;15.35;;;10.95;;
29504;SDS011;16452;54.174;12.092;2023-02-17T10:53:32;13.57;;;10.35;;
29504;SDS011;16452;54.174;12.092;2023-02-17T11:01:22;14.55;;;10.15;;
29504;SDS011;16452;54.174;12.092;2023-02-17T11:04:01;13.77;;;10.68;;
29504;SDS011;16452;54.174;12.092;2023-02-17T11:06:31;15.77;;;10.95;;
29504;SDS011;16452;54.174;12.092;2023-02-17T11:09:16;15.05;;;10.63;;
29504;SDS011;16452;54.174;12.092;2023-02-17T11:11:49;13.55;;;9.75;;
29504;SDS011;16452;54.174;12.092;2023-02-17T11:14:29;13.75;;;10.07;;
29504;SDS011;16452;54.174;12.092;2023-02-17T11:19:29;10.80;;;8.27;;
29504;SDS011;16452;54.174;12.092;2023-02-17T11:21:59;12.73;;;8.10;;
29504;SDS011;16452;54.174;12.092;2023-02-17T11:24:28;11.20;;;7.97;;
29504;SDS011;16452;54.174;12.092;2023-02-17T11:27:01;9.57;;;8.02;;
29504;SDS011;16452;54.174;12.092;2023-02-17T11:29:32;9.52;;;6.85;;
29504;SDS011;16452;54.174;12.092;2023-02-17T11:32:04;8.75;;;6.47;;
29504;SDS011;16452;54.174;12.092;2023-02-17T11:34:37;7.40;;;6.03;;
29504;SDS011;16452;54.174;12.092;2023-02-17T11:39:39;6.20;;;4.88;;
29504;SDS011;16452;54.174;12.092;2023-02-17T11:42:20;8.55;;;5.78;;
29504;SDS011;16452;54.174;12.092;2023-02-17T11:44:55;7.20;;;5.20;;
29504;SDS011;16452;54.174;12.092;2023-02-17T11:53:23;6.32;;;4.95;;
29504;SDS011;16452;54.174;12.092;2023-02-17T11:56:13;8.40;;;5.80;;
29504;SDS011;16452;54.174;12.092;2023-02-17T12:04:41;7.78;;;5.65;;
29504;SDS011;16452;54.174;12.092;2023-02-17T12:16:26;9.48;;;6.70;;
29504;SDS011;16452;54.174;12.092;2023-02-17T12:19:11;7.85;;;6.05;;
29504;SDS011;16452;54.174;12.092;2023-02-17T12:22:13;8.32;;;6.22;;
29504;SDS011;16452;54.174;12.092;2023-02-17T12:33:01;7.90;;;5.93;;
29504;SDS011;16452;54.174;12.092;2023-02-17T12:36:10;9.02;;;5.57;;
29504;SDS011;16452;54.174;12.092;2023-02-17T12:38:41;6.68;;;5.35;;
29504;SDS011;16452;54.174;12.092;2023-02-17T12:41:22;7.30;;;5.13;;
29504;SDS011;16452;54.174;12.092;2023-02-17T12:43:59;7.05;;;5.18;;
29504;SDS011;16452;54.174;12.092;2023-02-17T12:46:38;6.63;;;4.95;;
29504;SDS011;16452;54.174;12.092;2023-02-17T12:49:15;5.57;;;4.43;;
29504;SDS011;16452;54.174;12.092;2023-02-17T12:51:57;6.07;;;4.70;;
29504;SDS011;16452;54.174;12.092;2023-02-17T12:54:26;5.80;;;4.43;;
29504;SDS011;16452;54.174;12.092;2023-02-17T12:57:21;6.80;;;4.25;;
29504;SDS011;16452;54.174;12.092;2023-02-17T13:00:14;5.55;;;4.60;;
29504;SDS011;16452;54.174;12.092;2023-02-17T13:02:49;7.50;;;4.35;;
29504;SDS011;16452;54.174;12.092;2023-02-17T13:05:24;11.55;;;8.23;;
29504;SDS011;16452;54.174;12.092;2023-02-17T13:08:03;5.45;;;4.25;;
29504;SDS011;16452;54.174;12.092;2023-02-17T13:10:34;6.20;;;4.25;;
29504;SDS011;16452;54.174;12.092;2023-02-17T13:13:10;7.43;;;4.15;;
29504;SDS011;16452;54.174;12.092;2023-02-17T13:16:00;6.03;;;4.40;;
29504;SDS011;16452;54.174;12.092;2023-02-17T13:18:42;6.05;;;4.35;;
29504;SDS011;16452;54.174;12.092;2023-02-17T13:23:57;5.13;;;3.90;;
29504;SDS011;16452;54.174;12.092;2023-02-17T13:26:31;6.28;;;4.18;;
29504;SDS011;16452;54.174;12.092;2023-02-17T13:31:58;5.20;;;3.40;;
29504;SDS011;16452;54.174;12.092;2023-02-17T13:37:24;6.28;;;4.53;;
29504;SDS011;16452;54.174;12.092;2023-02-17T13:42:42;6.57;;;4.20;;
29504;SDS011;16452;54.174;12.092;2023-02-17T13:48:11;8.48;;;4.25;;
29504;SDS011;16452;54.174;12.092;2023-02-17T13:50:44;6.10;;;3.55;;
29504;SDS011;16452;54.174;12.092;2023-02-17T13:55:57;10.13;;;4.70;;
29504;SDS011;16452;54.174;12.092;2023-02-17T13:58:48;6.45;;;4.10;;
29504;SDS011;16452;54.174;12.092;2023-02-17T14:01:14;8.13;;;4.00;;
29504;SDS011;16452;54.174;12.092;2023-02-17T14:03:48;11.55;;;3.90;;
29504;SDS011;16452;54.174;12.092;2023-02-17T14:06:31;9.45;;;4.22;;
29504;SDS011;16452;54.174;12.092;2023-02-17T14:09:10;11.35;;;4.20;;
29504;SDS011;16452;54.174;12.092;2023-02-17T14:11:57;8.30;;;3.72;;
29504;SDS011;16452;54.174;12.092;2023-02-17T14:14:33;7.70;;;3.63;;
29504;SDS011;16452;54.174;12.092;2023-02-17T14:17:04;9.02;;;3.80;;
29504;SDS011;16452;54.174;12.092;2023-02-17T14:19:43;7.97;;;3.60;;
29504;SDS011;16452;54.174;12.092;2023-02-17T14:25:10;11.60;;;4.07;;
29504;SDS011;16452;54.174;12.092;2023-02-17T14:30:33;8.82;;;3.33;;
29504;SDS011;16452;54.174;12.092;2023-02-17T14:33:06;13.20;;;4.43;;
29504;SDS011;16452;54.174;12.092;2023-02-17T14:41:04;12.10;;;3.33;;
29504;SDS011;16452;54.174;12.092;2023-02-17T14:43:33;15.48;;;4.65;;
29504;SDS011;16452;54.174;12.092;2023-02-17T14:45:59;15.75;;;4.32;;
29504;SDS011;16452;54.174;12.092;2023-02-17T14:48:25;16.70;;;4.07;;
29504;SDS011;16452;54.174;12.092;2023-02-17T14:50:50;17.45;;;3.88;;
29504;SDS011;16452;54.174;12.092;2023-02-17T14:56:01;16.08;;;3.95;;
29504;SDS011;16452;54.174;12.092;2023-02-17T14:58:53;20.58;;;4.05;;
29504;SDS011;16452;54.174;12.092;2023-02-17T15:01:21;15.48;;;3.40;;
29504;SDS011;16452;54.174;12.092;2023-02-17T15:03:49;19.92;;;4.07;;
29504;SDS011;16452;54.174;12.092;2023-02-17T15:06:18;20.00;;;3.70;;
29504;SDS011;16452;54.174;12.092;2023-02-17T15:08:45;17.95;;;4.18;;
29504;SDS011;16452;54.174;12.092;2023-02-17T15:11:17;12.60;;;3.08;;
29504;SDS011;16452;54.174;12.092;2023-02-17T15:13:55;20.70;;;4.07;;
29504;SDS011;16452;54.174;12.092;2023-02-17T15:16:21;23.38;;;5.00;;
29504;SDS011;16452;54.174;12.092;2023-02-17T15:18:47;23.90;;;3.67;;
29504;SDS011;16452;54.174;12.092;2023-02-17T15:21:36;19.75;;;3.85;;
29504;SDS011;16452;54.174;12.092;2023-02-17T15:24:03;19.52;;;4.78;;
29504;SDS011;16452;54.174;12.092;2023-02-17T15:26:41;21.42;;;4.60;;
29504;SDS011;16452;54.174;12.092;2023-02-17T15:29:28;21.23;;;3.95;;
29504;SDS011;16452;54.174;12.092;2023-02-17T15:31:54;22.10;;;3.70;;
29504;SDS011;16452;54.174;12.092;2023-02-17T15:34:25;31.00;;;5.30;;
29504;SDS011;16452;54.174;12.092;2023-02-17T15:36:55;19.40;;;4.18;;
29504;SDS011;16452;54.174;12.092;2023-02-17T15:39:22;29.00;;;4.43;;
29504;SDS011;16452;54.174;12.092;2023-02-17T15:41:48;24.75;;;4.47;;
29504;SDS011;16452;54.174;12.092;2023-02-17T15:44:19;26.58;;;4.47;;
29504;SDS011;16452;54.174;12.092;2023-02-17T15:46:50;25.05;;;4.20;;
29504;SDS011;16452;54.174;12.092;2023-02-17T15:49:19;24.25;;;4.40;;
29504;SDS011;16452;54.174;12.092;2023-02-17T15:51:44;25.55;;;4.20;;
29504;SDS011;16452;54.174;12.092;2023-02-17T15:54:10;21.02;;;4.25;;
29504;SDS011;16452;54.174;12.092;2023-02-17T15:56:39;24.25;;;5.03;;
29504;SDS011;16452;54.174;12.092;2023-02-17T15:59:16;29.00;;;5.43;;
29504;SDS011;16452;54.174;12.092;2023-02-17T16:01:45;26.52;;;5.30;;
29504;SDS011;16452;54.174;12.092;2023-02-17T16:04:12;27.77;;;4.68;;
29504;SDS011;16452;54.174;12.092;2023-02-17T16:06:39;33.65;;;6.25;;
29504;SDS011;16452;54.174;12.092;2023-02-17T16:09:05;31.88;;;6.10;;
29504;SDS011;16452;54.174;12.092;2023-02-17T16:11:32;38.05;;;6.32;;
29504;SDS011;16452;54.174;12.092;2023-02-17T16:13:59;28.27;;;5.65;;
29504;SDS011;16452;54.174;12.092;2023-02-17T16:16:27;31.50;;;6.53;;